sensor_id;sensor_type;location;lat;lon;timestamp;pressure;altitude;pressure_sealevel;temperature;humidity
51849;BME280;38952;51.090;-1.832;2023-03-03T00:01:26;101444.59;;;0.45;82.55
51849;BME280;38952;51.090;-1.832;2023-03-03T00:03:52;101438.75;;;0.41;82.07
51849;BME280;38952;51.090;-1.832;2023-03-03T00:06:18;101448.81;;;0.47;81.54
51849;BME280;38952;51.090;-1.832;2023-03-03T00:08:44;101445.13;;;0.48;82.06
51849;BME280;38952;51.090;-1.832;2023-03-03T00:11:10;101450.97;;;0.52;82.55
51849;BME280;38952;51.090;-1.832;2023-03-03T00:13:52;101451.97;;;0.51;82.16
51849;BME280;38952;51.090;-1.832;2023-03-03T00:16:24;101451.81;;;0.52;82.20
51849;BME280;38952;51.090;-1.832;2023-03-03T00:18:51;101448.81;;;0.47;81.85
51849;BME280;38952;51.090;-1.832;2023-03-03T00:21:27;101457.25;;;0.44;82.86
51849;BME280;38952;51.090;-1.832;2023-03-03T00:24:04;101445.66;;;0.36;82.09
51849;BME280;38952;51.090;-1.832;2023-03-03T00:26:38;101452.56;;;0.38;82.90
51849;BME280;38952;51.090;-1.832;2023-03-03T00:29:30;101453.22;;;0.40;82.65
51849;BME280;38952;51.090;-1.832;2023-03-03T00:34:40;101441.25;;;0.43;82.38
51849;BME280;38952;51.090;-1.832;2023-03-03T00:37:32;101444.59;;;0.45;83.61
51849;BME280;38952;51.090;-1.832;2023-03-03T00:42:36;101432.88;;;0.38;83.11
51849;BME280;38952;51.090;-1.832;2023-03-03T00:45:17;101440.41;;;0.42;83.35
51849;BME280;38952;51.090;-1.832;2023-03-03T00:47:47;101448.19;;;0.37;82.54
51849;BME280;38952;51.090;-1.832;2023-03-03T00:50:55;101437.06;;;0.40;83.68
51849;BME280;38952;51.090;-1.832;2023-03-03T00:55:28;101432.75;;;0.31;84.03
51849;BME280;38952;51.090;-1.832;2023-03-03T00:57:53;101442.44;;;0.40;84.25
51849;BME280;38952;51.090;-1.832;2023-03-03T01:00:19;101441.09;;;0.44;84.58
51849;BME280;38952;51.090;-1.832;2023-03-03T01:02:44;101435.03;;;0.42;83.43
51849;BME280;38952;51.090;-1.832;2023-03-03T01:05:15;101450.00;;;0.45;83.20
51849;BME280;38952;51.090;-1.832;2023-03-03T01:07:41;101447.19;;;0.30;83.33
51849;BME280;38952;51.090;-1.832;2023-03-03T01:10:07;101453.94;;;0.26;84.62
51849;BME280;38952;51.090;-1.832;2023-03-03T01:12:33;101448.25;;;0.21;84.12
51849;BME280;38952;51.090;-1.832;2023-03-03T01:14:59;101442.53;;;0.07;84.04
51849;BME280;38952;51.090;-1.832;2023-03-03T01:17:24;101450.44;;;0.09;84.97
51849;BME280;38952;51.090;-1.832;2023-03-03T01:19:50;101450.94;;;0.04;83.59
51849;BME280;38952;51.090;-1.832;2023-03-03T01:22:15;101454.31;;;-0.02;84.86
51849;BME280;38952;51.090;-1.832;2023-03-03T01:24:41;101443.91;;;-0.13;84.97
51849;BME280;38952;51.090;-1.832;2023-03-03T01:27:08;101439.38;;;-0.05;84.59
51849;BME280;38952;51.090;-1.832;2023-03-03T01:29:37;101467.25;;;0.19;84.69
51849;BME280;38952;51.090;-1.832;2023-03-03T01:32:02;101463.00;;;0.33;83.97
51849;BME280;38952;51.090;-1.832;2023-03-03T01:34:28;101474.03;;;0.46;83.60
51849;BME280;38952;51.090;-1.832;2023-03-03T01:36:53;101473.34;;;0.52;83.21
51849;BME280;38952;51.090;-1.832;2023-03-03T01:39:18;101479.38;;;0.63;83.32
51849;BME280;38952;51.090;-1.832;2023-03-03T01:41:44;101469.28;;;0.65;83.61
51849;BME280;38952;51.090;-1.832;2023-03-03T01:44:13;101469.19;;;0.81;83.02
51849;BME280;38952;51.090;-1.832;2023-03-03T01:49:54;101473.13;;;1.02;82.65
51849;BME280;38952;51.090;-1.832;2023-03-03T01:55:10;101473.63;;;1.29;81.63
51849;BME280;38952;51.090;-1.832;2023-03-03T01:57:40;101471.84;;;1.44;80.78
51849;BME280;38952;51.090;-1.832;2023-03-03T02:00:09;101484.66;;;1.65;81.42
51849;BME280;38952;51.090;-1.832;2023-03-03T02:02:35;101486.44;;;1.73;80.82
51849;BME280;38952;51.090;-1.832;2023-03-03T02:05:01;101490.09;;;1.80;80.38
51849;BME280;38952;51.090;-1.832;2023-03-03T02:07:27;101497.75;;;1.91;80.31
51849;BME280;38952;51.090;-1.832;2023-03-03T02:10:14;101483.78;;;1.88;79.46
51849;BME280;38952;51.090;-1.832;2023-03-03T02:12:48;101488.66;;;2.07;79.60
51849;BME280;38952;51.090;-1.832;2023-03-03T02:15:27;101498.09;;;2.26;79.04
51849;BME280;38952;51.090;-1.832;2023-03-03T02:17:55;101480.78;;;2.36;78.93
51849;BME280;38952;51.090;-1.832;2023-03-03T02:28:24;101493.91;;;2.54;78.08
51849;BME280;38952;51.090;-1.832;2023-03-03T02:30:57;101470.91;;;2.43;77.81
51849;BME280;38952;51.090;-1.832;2023-03-03T02:33:23;101476.09;;;2.59;78.02
51849;BME280;38952;51.090;-1.832;2023-03-03T02:35:50;101477.19;;;2.80;78.11
51849;BME280;38952;51.090;-1.832;2023-03-03T02:38:38;101480.44;;;3.27;77.74
51849;BME280;38952;51.090;-1.832;2023-03-03T02:41:35;101489.44;;;3.49;77.04
51849;BME280;38952;51.090;-1.832;2023-03-03T02:44:12;101489.16;;;3.44;76.23
51849;BME280;38952;51.090;-1.832;2023-03-03T02:46:43;101486.94;;;3.32;76.59
51849;BME280;38952;51.090;-1.832;2023-03-03T02:49:14;101472.41;;;3.34;77.17
51849;BME280;38952;51.090;-1.832;2023-03-03T02:51:40;101503.06;;;3.62;76.43
51849;BME280;38952;51.090;-1.832;2023-03-03T02:54:15;101496.38;;;3.58;76.51
51849;BME280;38952;51.090;-1.832;2023-03-03T02:56:41;101496.63;;;3.42;76.35
51849;BME280;38952;51.090;-1.832;2023-03-03T02:59:07;101491.91;;;3.29;75.85
51849;BME280;38952;51.090;-1.832;2023-03-03T03:01:33;101496.84;;;3.25;76.01
51849;BME280;38952;51.090;-1.832;2023-03-03T03:04:11;101491.19;;;3.20;76.24
51849;BME280;38952;51.090;-1.832;2023-03-03T03:06:37;101512.34;;;3.31;76.08
51849;BME280;38952;51.090;-1.832;2023-03-03T03:09:05;101496.84;;;3.25;76.30
51849;BME280;38952;51.090;-1.832;2023-03-03T03:11:34;101497.00;;;3.39;76.20
51849;BME280;38952;51.090;-1.832;2023-03-03T03:14:04;101506.69;;;3.48;75.87
51849;BME280;38952;51.090;-1.832;2023-03-03T03:16:30;101503.59;;;3.51;76.24
51849;BME280;38952;51.090;-1.832;2023-03-03T03:19:05;101513.00;;;3.55;75.53
51849;BME280;38952;51.090;-1.832;2023-03-03T03:21:31;101509.63;;;3.53;75.68
51849;BME280;38952;51.090;-1.832;2023-03-03T03:24:00;101512.13;;;3.55;75.54
51849;BME280;38952;51.090;-1.832;2023-03-03T03:26:28;101499.19;;;3.50;75.20
51849;BME280;38952;51.090;-1.832;2023-03-03T03:28:54;101511.50;;;3.53;75.27
51849;BME280;38952;51.090;-1.832;2023-03-03T03:31:20;101499.59;;;3.47;75.20
51849;BME280;38952;51.090;-1.832;2023-03-03T03:33:45;101488.88;;;3.39;75.13
51849;BME280;38952;51.090;-1.832;2023-03-03T03:36:11;101499.19;;;3.50;75.24
51849;BME280;38952;51.090;-1.832;2023-03-03T03:38:37;101491.22;;;3.42;75.47
51849;BME280;38952;51.090;-1.832;2023-03-03T03:41:03;101502.16;;;3.55;75.03
51849;BME280;38952;51.090;-1.832;2023-03-03T03:43:29;101485.47;;;3.52;75.20
51849;BME280;38952;51.090;-1.832;2023-03-03T03:45:55;101495.72;;;3.56;75.09
51849;BME280;38952;51.090;-1.832;2023-03-03T03:48:20;101500.59;;;3.67;74.67
51849;BME280;38952;51.090;-1.832;2023-03-03T03:50:47;101496.50;;;3.72;75.01
51849;BME280;38952;51.090;-1.832;2023-03-03T03:53:12;101494.88;;;3.77;74.85
51849;BME280;38952;51.090;-1.832;2023-03-03T03:55:38;101493.91;;;3.85;74.80
51849;BME280;38952;51.090;-1.832;2023-03-03T03:58:03;101478.75;;;3.91;74.68
51849;BME280;38952;51.090;-1.832;2023-03-03T04:00:29;101484.72;;;4.08;74.39
51849;BME280;38952;51.090;-1.832;2023-03-03T04:02:54;101482.72;;;4.23;73.68
51849;BME280;38952;51.090;-1.832;2023-03-03T04:05:20;101476.63;;;4.43;74.01
51849;BME280;38952;51.090;-1.832;2023-03-03T04:07:45;101489.97;;;4.51;72.70
51849;BME280;38952;51.090;-1.832;2023-03-03T04:10:11;101485.44;;;4.51;72.25
51849;BME280;38952;51.090;-1.832;2023-03-03T04:12:36;101486.50;;;4.64;72.71
51849;BME280;38952;51.090;-1.832;2023-03-03T04:15:07;101463.31;;;4.48;72.64
51849;BME280;38952;51.090;-1.832;2023-03-03T04:17:33;101482.31;;;4.61;71.91
51849;BME280;38952;51.090;-1.832;2023-03-03T04:19:58;101486.72;;;4.62;71.71
51849;BME280;38952;51.090;-1.832;2023-03-03T04:22:25;101481.56;;;4.67;71.76
51849;BME280;38952;51.090;-1.832;2023-03-03T04:24:50;101486.75;;;4.69;71.91
51849;BME280;38952;51.090;-1.832;2023-03-03T04:27:16;101483.00;;;4.70;71.20
51849;BME280;38952;51.090;-1.832;2023-03-03T04:29:41;101484.63;;;4.64;70.75
51849;BME280;38952;51.090;-1.832;2023-03-03T04:32:07;101489.44;;;4.62;71.47
51849;BME280;38952;51.090;-1.832;2023-03-03T04:34:32;101480.91;;;4.65;71.29
51849;BME280;38952;51.090;-1.832;2023-03-03T04:36:58;101482.22;;;4.76;71.16
51849;BME280;38952;51.090;-1.832;2023-03-03T04:39:23;101481.34;;;4.76;70.92
51849;BME280;38952;51.090;-1.832;2023-03-03T04:41:49;101486.16;;;4.74;70.49
51849;BME280;38952;51.090;-1.832;2023-03-03T04:44:15;101473.78;;;4.64;70.77
51849;BME280;38952;51.090;-1.832;2023-03-03T04:46:43;101485.78;;;4.83;70.45
51849;BME280;38952;51.090;-1.832;2023-03-03T04:49:08;101481.81;;;4.79;69.96
51849;BME280;38952;51.090;-1.832;2023-03-03T04:51:34;101482.22;;;4.76;69.88
51849;BME280;38952;51.090;-1.832;2023-03-03T04:53:59;101484.69;;;4.71;69.78
51849;BME280;38952;51.090;-1.832;2023-03-03T04:56:25;101493.00;;;4.69;70.13
51849;BME280;38952;51.090;-1.832;2023-03-03T04:58:53;101496.75;;;4.68;69.88
51849;BME280;38952;51.090;-1.832;2023-03-03T05:01:19;101489.03;;;4.65;69.74
51849;BME280;38952;51.090;-1.832;2023-03-03T05:03:44;101487.75;;;4.61;70.01
51849;BME280;38952;51.090;-1.832;2023-03-03T05:06:10;101494.63;;;4.57;70.41
51849;BME280;38952;51.090;-1.832;2023-03-03T05:08:36;101490.47;;;4.61;70.45
51849;BME280;38952;51.090;-1.832;2023-03-03T05:11:02;101487.13;;;4.59;69.53
51849;BME280;38952;51.090;-1.832;2023-03-03T05:13:28;101493.00;;;4.69;70.13
51849;BME280;38952;51.090;-1.832;2023-03-03T05:15:54;101493.41;;;4.66;69.58
51849;BME280;38952;51.090;-1.832;2023-03-03T05:18:22;101497.81;;;4.67;69.88
51849;BME280;38952;51.090;-1.832;2023-03-03T05:20:50;101487.94;;;4.60;70.06
51849;BME280;38952;51.090;-1.832;2023-03-03T05:23:17;101493.78;;;4.57;70.00
51849;BME280;38952;51.090;-1.832;2023-03-03T05:25:43;101498.78;;;4.60;70.03
51849;BME280;38952;51.090;-1.832;2023-03-03T05:28:09;101501.69;;;4.58;69.47
51849;BME280;38952;51.090;-1.832;2023-03-03T05:30:38;101497.09;;;4.52;70.19
51849;BME280;38952;51.090;-1.832;2023-03-03T05:33:04;101488.28;;;4.43;69.85
51849;BME280;38952;51.090;-1.832;2023-03-03T05:35:30;101490.38;;;4.41;70.53
51849;BME280;38952;51.090;-1.832;2023-03-03T05:37:56;101489.97;;;4.44;70.11
51849;BME280;38952;51.090;-1.832;2023-03-03T05:40:23;101499.78;;;4.52;70.36
51849;BME280;38952;51.090;-1.832;2023-03-03T05:42:49;101484.53;;;4.44;70.45
51849;BME280;38952;51.090;-1.832;2023-03-03T05:45:14;101489.50;;;4.41;70.17
51849;BME280;38952;51.090;-1.832;2023-03-03T05:47:40;101490.56;;;4.40;70.07
51849;BME280;38952;51.090;-1.832;2023-03-03T05:50:06;101487.19;;;4.37;69.97
51849;BME280;38952;51.090;-1.832;2023-03-03T05:52:31;101489.91;;;4.37;70.33
51849;BME280;38952;51.090;-1.832;2023-03-03T05:54:57;101482.44;;;4.40;70.58
51849;BME280;38952;51.090;-1.832;2023-03-03T05:57:23;101481.63;;;4.46;70.57
51849;BME280;38952;51.090;-1.832;2023-03-03T05:59:51;101490.25;;;4.56;70.31
51849;BME280;38952;51.090;-1.832;2023-03-03T06:02:17;101497.56;;;4.62;69.39
51849;BME280;38952;51.090;-1.832;2023-03-03T06:04:42;101496.34;;;4.71;69.35
51849;BME280;38952;51.090;-1.832;2023-03-03T06:07:08;101495.09;;;4.67;68.76
51849;BME280;38952;51.090;-1.832;2023-03-03T06:09:33;101501.34;;;4.68;68.58
51849;BME280;38952;51.090;-1.832;2023-03-03T06:11:58;101499.66;;;4.60;69.20
51849;BME280;38952;51.090;-1.832;2023-03-03T06:14:24;101507.31;;;4.57;69.10
51849;BME280;38952;51.090;-1.832;2023-03-03T06:16:49;101498.38;;;4.56;68.98
51849;BME280;38952;51.090;-1.832;2023-03-03T06:19:15;101507.50;;;4.55;68.87
51849;BME280;38952;51.090;-1.832;2023-03-03T06:21:41;101514.38;;;4.51;68.95
51849;BME280;38952;51.090;-1.832;2023-03-03T06:24:10;101502.44;;;4.39;68.96
51849;BME280;38952;51.090;-1.832;2023-03-03T06:26:35;101486.09;;;4.25;69.64
51849;BME280;38952;51.090;-1.832;2023-03-03T06:29:01;101506.56;;;4.34;69.44
51849;BME280;38952;51.090;-1.832;2023-03-03T06:31:27;101509.66;;;4.31;69.73
51849;BME280;38952;51.090;-1.832;2023-03-03T06:33:53;101509.47;;;4.33;69.28
51849;BME280;38952;51.090;-1.832;2023-03-03T06:36:26;101504.88;;;4.33;69.57
51849;BME280;38952;51.090;-1.832;2023-03-03T06:38:54;101486.56;;;4.35;69.90
51849;BME280;38952;51.090;-1.832;2023-03-03T06:41:19;101512.94;;;4.55;69.12
51849;BME280;38952;51.090;-1.832;2023-03-03T06:43:47;101502.94;;;4.55;68.74
51849;BME280;38952;51.090;-1.832;2023-03-03T06:46:13;101512.13;;;4.61;68.22
51849;BME280;38952;51.090;-1.832;2023-03-03T06:48:39;101510.88;;;4.57;68.15
51849;BME280;38952;51.090;-1.832;2023-03-03T06:51:19;101522.16;;;4.61;68.34
51849;BME280;38952;51.090;-1.832;2023-03-03T06:53:50;101497.00;;;4.39;68.52
51849;BME280;38952;51.090;-1.832;2023-03-03T06:56:18;101529.72;;;4.44;68.41
51849;BME280;38952;51.090;-1.832;2023-03-03T06:58:47;101510.25;;;4.27;69.07
51849;BME280;38952;51.090;-1.832;2023-03-03T07:01:34;101531.34;;;4.31;69.19
51849;BME280;38952;51.090;-1.832;2023-03-03T07:04:23;101526.50;;;4.27;69.17
51849;BME280;38952;51.090;-1.832;2023-03-03T07:06:50;101509.81;;;4.23;69.86
51849;BME280;38952;51.090;-1.832;2023-03-03T07:09:24;101523.16;;;4.25;69.95
51849;BME280;38952;51.090;-1.832;2023-03-03T07:12:04;101537.78;;;4.30;69.32
51849;BME280;38952;51.090;-1.832;2023-03-03T07:14:38;101520.25;;;4.26;69.51
51849;BME280;38952;51.090;-1.832;2023-03-03T07:17:12;101534.25;;;4.36;69.14
51849;BME280;38952;51.090;-1.832;2023-03-03T07:19:39;101524.22;;;4.30;69.90
51849;BME280;38952;51.090;-1.832;2023-03-03T07:24:38;101546.66;;;4.46;69.47
51849;BME280;38952;51.090;-1.832;2023-03-03T07:29:30;101547.94;;;4.57;69.67
51849;BME280;38952;51.090;-1.832;2023-03-03T07:31:57;101543.41;;;4.57;69.46
51849;BME280;38952;51.090;-1.832;2023-03-03T07:34:29;101555.47;;;4.61;69.25
51849;BME280;38952;51.090;-1.832;2023-03-03T07:37:01;101555.72;;;4.66;68.89
51849;BME280;38952;51.090;-1.832;2023-03-03T07:39:37;101546.31;;;4.62;69.74
51849;BME280;38952;51.090;-1.832;2023-03-03T07:44:40;101558.09;;;4.76;68.66
51849;BME280;38952;51.090;-1.832;2023-03-03T07:47:26;101571.91;;;4.88;68.77
51849;BME280;38952;51.090;-1.832;2023-03-03T07:49:56;101564.81;;;4.87;68.26
51849;BME280;38952;51.090;-1.832;2023-03-03T07:52:37;101561.91;;;4.88;68.10
51849;BME280;38952;51.090;-1.832;2023-03-03T07:57:53;101567.84;;;5.05;68.09
51849;BME280;38952;51.090;-1.832;2023-03-03T08:05:41;101573.28;;;5.12;68.05
51849;BME280;38952;51.090;-1.832;2023-03-03T08:08:29;101585.91;;;5.33;68.07
51849;BME280;38952;51.090;-1.832;2023-03-03T08:11:08;101576.06;;;5.32;67.26
51849;BME280;38952;51.090;-1.832;2023-03-03T08:18:44;101600.38;;;5.60;66.34
51849;BME280;38952;51.090;-1.832;2023-03-03T08:21:14;101588.06;;;5.65;66.55
51849;BME280;38952;51.090;-1.832;2023-03-03T08:23:41;101597.94;;;5.72;65.46
51849;BME280;38952;51.090;-1.832;2023-03-03T08:26:16;101576.59;;;5.69;65.29
51849;BME280;38952;51.090;-1.832;2023-03-03T08:28:44;101613.25;;;6.00;64.30
51849;BME280;38952;51.090;-1.832;2023-03-03T08:31:10;101611.59;;;6.13;64.50
51849;BME280;38952;51.090;-1.832;2023-03-03T08:33:39;101596.97;;;6.14;64.53
51849;BME280;38952;51.090;-1.832;2023-03-03T08:36:06;101619.53;;;6.34;62.97
51849;BME280;38952;51.090;-1.832;2023-03-03T08:38:39;101620.38;;;6.41;62.88
51849;BME280;38952;51.090;-1.832;2023-03-03T08:41:05;101607.41;;;6.43;62.81
51849;BME280;38952;51.090;-1.832;2023-03-03T08:43:31;101590.06;;;6.44;62.58
51849;BME280;38952;51.090;-1.832;2023-03-03T08:46:01;101606.59;;;6.63;61.93
51849;BME280;38952;51.090;-1.832;2023-03-03T08:48:32;101603.84;;;6.70;61.43
51849;BME280;38952;51.090;-1.832;2023-03-03T08:50:58;101613.25;;;6.80;61.22
51849;BME280;38952;51.090;-1.832;2023-03-03T08:53:24;101605.28;;;6.92;60.76
51849;BME280;38952;51.090;-1.832;2023-03-03T08:55:50;101610.91;;;7.04;60.46
51849;BME280;38952;51.090;-1.832;2023-03-03T08:58:17;101621.09;;;7.22;60.03
51849;BME280;38952;51.090;-1.832;2023-03-03T09:01:05;101624.78;;;7.48;59.50
51849;BME280;38952;51.090;-1.832;2023-03-03T09:04:11;101582.41;;;7.59;58.72
51849;BME280;38952;51.090;-1.832;2023-03-03T09:06:44;101612.03;;;7.80;57.02
51849;BME280;38952;51.090;-1.832;2023-03-03T09:09:09;101605.47;;;7.88;57.09
51849;BME280;38952;51.090;-1.832;2023-03-03T09:11:40;101600.97;;;8.07;56.96
51849;BME280;38952;51.090;-1.832;2023-03-03T09:14:12;101627.97;;;8.41;56.55
51849;BME280;38952;51.090;-1.832;2023-03-03T09:16:50;101607.28;;;8.33;55.16
51849;BME280;38952;51.090;-1.832;2023-03-03T09:19:24;101629.00;;;8.39;55.62
51849;BME280;38952;51.090;-1.832;2023-03-03T09:21:53;101621.78;;;8.27;54.57
51849;BME280;38952;51.090;-1.832;2023-03-03T09:24:26;101633.63;;;8.39;54.20
51849;BME280;38952;51.090;-1.832;2023-03-03T09:26:53;101625.44;;;8.39;54.54
51849;BME280;38952;51.090;-1.832;2023-03-03T09:29:28;101632.00;;;8.63;54.52
51849;BME280;38952;51.090;-1.832;2023-03-03T09:31:54;101631.75;;;8.90;54.26
51849;BME280;38952;51.090;-1.832;2023-03-03T09:39:42;101632.50;;;8.97;52.87
51849;BME280;38952;51.090;-1.832;2023-03-03T09:42:46;101621.81;;;8.96;52.65
51849;BME280;38952;51.090;-1.832;2023-03-03T09:48:26;101634.72;;;9.25;52.26
51849;BME280;38952;51.090;-1.832;2023-03-03T09:51:17;101632.91;;;9.38;51.44
51849;BME280;38952;51.090;-1.832;2023-03-03T09:54:09;101634.94;;;9.61;51.66
51849;BME280;38952;51.090;-1.832;2023-03-03T09:56:51;101626.56;;;9.74;50.28
51849;BME280;38952;51.090;-1.832;2023-03-03T10:02:18;101637.03;;;10.50;48.98
51849;BME280;38952;51.090;-1.832;2023-03-03T10:13:35;101644.53;;;10.90;48.40
51849;BME280;38952;51.090;-1.832;2023-03-03T10:24:28;101641.25;;;11.69;46.20
51849;BME280;38952;51.090;-1.832;2023-03-03T10:27:23;101631.56;;;11.50;46.07
51849;BME280;38952;51.090;-1.832;2023-03-03T10:32:34;101646.91;;;10.98;46.74
51849;BME280;38952;51.090;-1.832;2023-03-03T10:35:24;101643.47;;;10.68;46.95
51849;BME280;38952;51.090;-1.832;2023-03-03T10:38:01;101657.72;;;10.70;47.30
51849;BME280;38952;51.090;-1.832;2023-03-03T10:52:25;101667.00;;;10.26;48.28
51849;BME280;38952;51.090;-1.832;2023-03-03T11:00:49;101659.81;;;10.02;48.02
51849;BME280;38952;51.090;-1.832;2023-03-03T11:06:01;101668.47;;;9.68;48.56
51849;BME280;38952;51.090;-1.832;2023-03-03T11:08:35;101647.16;;;9.40;48.73
51849;BME280;38952;51.090;-1.832;2023-03-03T11:11:22;101674.59;;;9.64;48.68
51849;BME280;38952;51.090;-1.832;2023-03-03T11:14:06;101664.22;;;9.54;48.84
51849;BME280;38952;51.090;-1.832;2023-03-03T11:22:51;101670.66;;;10.20;48.42
51849;BME280;38952;51.090;-1.832;2023-03-03T11:36:18;101683.06;;;10.77;46.31
51849;BME280;38952;51.090;-1.832;2023-03-03T11:42:10;101693.44;;;11.22;44.96
51849;BME280;38952;51.090;-1.832;2023-03-03T11:45:10;101678.06;;;11.21;44.92
51849;BME280;38952;51.090;-1.832;2023-03-03T11:53:39;101687.69;;;11.88;44.08
51849;BME280;38952;51.090;-1.832;2023-03-03T11:56:54;101653.13;;;11.58;43.44
51849;BME280;38952;51.090;-1.832;2023-03-03T12:03:10;101674.63;;;11.66;44.12
51849;BME280;38952;51.090;-1.832;2023-03-03T12:10:41;101685.59;;;11.66;43.55
51849;BME280;38952;51.090;-1.832;2023-03-03T12:16:18;101682.16;;;11.71;44.18
51849;BME280;38952;51.090;-1.832;2023-03-03T12:48:53;101662.47;;;10.98;44.53
51849;BME280;38952;51.090;-1.832;2023-03-03T12:54:27;101662.63;;;10.68;45.19
51849;BME280;38952;51.090;-1.832;2023-03-03T12:57:19;101664.06;;;10.82;44.86
51849;BME280;38952;51.090;-1.832;2023-03-03T13:10:45;101651.81;;;10.30;45.48
51849;BME280;38952;51.090;-1.832;2023-03-03T13:16:01;101644.97;;;10.09;45.71
51849;BME280;38952;51.090;-1.832;2023-03-03T13:21:39;101625.47;;;10.06;45.42
51849;BME280;38952;51.090;-1.832;2023-03-03T13:24:30;101627.66;;;10.16;45.88
51849;BME280;38952;51.090;-1.832;2023-03-03T13:27:34;101649.25;;;10.36;45.22
51849;BME280;38952;51.090;-1.832;2023-03-03T13:33:53;101625.38;;;10.55;45.18
51849;BME280;38952;51.090;-1.832;2023-03-03T13:40:18;101657.38;;;10.78;44.72
51849;BME280;38952;51.090;-1.832;2023-03-03T13:45:50;101651.53;;;10.51;44.96
51849;BME280;38952;51.090;-1.832;2023-03-03T13:51:18;101648.88;;;10.44;45.30
51849;BME280;38952;51.090;-1.832;2023-03-03T13:53:57;101649.69;;;10.33;45.29
51849;BME280;38952;51.090;-1.832;2023-03-03T13:59:22;101643.47;;;10.25;45.77
51849;BME280;38952;51.090;-1.832;2023-03-03T14:10:28;101641.50;;;10.02;46.34
51849;BME280;38952;51.090;-1.832;2023-03-03T14:13:06;101638.03;;;9.95;46.43
51849;BME280;38952;51.090;-1.832;2023-03-03T14:16:10;101643.75;;;9.93;46.70
51849;BME280;38952;51.090;-1.832;2023-03-03T14:18:51;101635.38;;;9.88;46.91
51849;BME280;38952;51.090;-1.832;2023-03-03T14:21:27;101636.28;;;9.70;47.18
51849;BME280;38952;51.090;-1.832;2023-03-03T14:26:49;101631.81;;;9.57;48.00
51849;BME280;38952;51.090;-1.832;2023-03-03T14:31:50;101637.59;;;9.31;48.11
51849;BME280;38952;51.090;-1.832;2023-03-03T14:36:48;101636.53;;;9.13;48.85
51849;BME280;38952;51.090;-1.832;2023-03-03T14:39:39;101626.09;;;9.10;49.15
51849;BME280;38952;51.090;-1.832;2023-03-03T14:42:31;101625.69;;;9.06;49.37
51849;BME280;38952;51.090;-1.832;2023-03-03T14:44:59;101618.03;;;9.15;49.68
51849;BME280;38952;51.090;-1.832;2023-03-03T14:47:26;101610.47;;;9.17;49.50
51849;BME280;38952;51.090;-1.832;2023-03-03T14:49:56;101607.13;;;9.15;49.43
51849;BME280;38952;51.090;-1.832;2023-03-03T14:52:30;101602.22;;;9.05;49.77
51849;BME280;38952;51.090;-1.832;2023-03-03T14:54:59;101606.75;;;9.12;49.50
51849;BME280;38952;51.090;-1.832;2023-03-03T14:57:47;101604.25;;;9.10;49.67
51849;BME280;38952;51.090;-1.832;2023-03-03T15:05:54;101596.34;;;9.02;50.01
51849;BME280;38952;51.090;-1.832;2023-03-03T15:08:33;101577.59;;;8.94;50.00
51849;BME280;38952;51.090;-1.832;2023-03-03T15:14:19;101593.31;;;8.91;50.32
51849;BME280;38952;51.090;-1.832;2023-03-03T15:16:47;101576.28;;;8.78;50.21
51849;BME280;38952;51.090;-1.832;2023-03-03T15:19:30;101588.47;;;8.75;50.50
51849;BME280;38952;51.090;-1.832;2023-03-03T15:22:18;101583.75;;;8.64;51.16
51849;BME280;38952;51.090;-1.832;2023-03-03T15:25:00;101582.38;;;8.54;51.57
51849;BME280;38952;51.090;-1.832;2023-03-03T15:27:43;101582.66;;;8.39;51.71
51849;BME280;38952;51.090;-1.832;2023-03-03T15:32:58;101587.91;;;8.16;51.75
51849;BME280;38952;51.090;-1.832;2023-03-03T15:35:53;101580.94;;;7.95;52.42
51849;BME280;38952;51.090;-1.832;2023-03-03T15:41:36;101590.22;;;7.87;53.32
51849;BME280;38952;51.090;-1.832;2023-03-03T15:44:29;101587.91;;;7.84;53.09
51849;BME280;38952;51.090;-1.832;2023-03-03T15:50:09;101595.81;;;7.60;53.87
51849;BME280;38952;51.090;-1.832;2023-03-03T15:52:46;101596.47;;;7.56;54.11
51849;BME280;38952;51.090;-1.832;2023-03-03T16:01:16;101589.59;;;7.46;54.62
51849;BME280;38952;51.090;-1.832;2023-03-03T16:04:20;101578.34;;;7.36;55.20
51849;BME280;38952;51.090;-1.832;2023-03-03T16:13:13;101580.44;;;7.34;54.36
51849;BME280;38952;51.090;-1.832;2023-03-03T16:16:24;101585.84;;;7.41;54.15
51849;BME280;38952;51.090;-1.832;2023-03-03T16:19:10;101587.56;;;7.35;54.70
51849;BME280;38952;51.090;-1.832;2023-03-03T16:32:49;101600.19;;;7.16;55.10
51849;BME280;38952;51.090;-1.832;2023-03-03T16:35:25;101595.19;;;7.06;54.99
51849;BME280;38952;51.090;-1.832;2023-03-03T16:38:17;101604.81;;;7.09;55.72
51849;BME280;38952;51.090;-1.832;2023-03-03T16:41:06;101588.09;;;6.92;56.51
51849;BME280;38952;51.090;-1.832;2023-03-03T16:46:21;101592.31;;;6.81;56.35
51849;BME280;38952;51.090;-1.832;2023-03-03T16:49:24;101600.66;;;6.86;57.60
51849;BME280;38952;51.090;-1.832;2023-03-03T16:51:55;101609.91;;;6.85;57.09
51849;BME280;38952;51.090;-1.832;2023-03-03T16:55:43;101609.47;;;6.81;56.92
51849;BME280;38952;51.090;-1.832;2023-03-03T17:06:22;101587.78;;;6.61;57.46
51849;BME280;38952;51.090;-1.832;2023-03-03T17:08:59;101587.34;;;6.58;57.64
51849;BME280;38952;51.090;-1.832;2023-03-03T17:14:30;101598.03;;;6.53;57.67
51849;BME280;38952;51.090;-1.832;2023-03-03T17:17:03;101598.22;;;6.58;57.36
51849;BME280;38952;51.090;-1.832;2023-03-03T17:22:33;101621.00;;;6.57;58.46
51849;BME280;38952;51.090;-1.832;2023-03-03T17:26:11;101595.72;;;6.36;58.65
51849;BME280;38952;51.090;-1.832;2023-03-03T17:28:34;101632.91;;;6.49;58.01
51849;BME280;38952;51.090;-1.832;2023-03-03T17:40:54;101601.16;;;6.09;59.13
51849;BME280;38952;51.090;-1.832;2023-03-03T18:00:38;101622.38;;;5.92;61.97
51849;BME280;38952;51.090;-1.832;2023-03-03T18:19:49;101666.22;;;5.83;63.34
51849;BME280;38952;51.090;-1.832;2023-03-03T18:22:43;101673.75;;;5.87;63.70
51849;BME280;38952;51.090;-1.832;2023-03-03T18:25:21;101666.00;;;5.77;63.03
51849;BME280;38952;51.090;-1.832;2023-03-03T18:30:56;101672.44;;;5.70;63.25
51849;BME280;38952;51.090;-1.832;2023-03-03T18:39:03;101665.78;;;5.72;63.33
51849;BME280;38952;51.090;-1.832;2023-03-03T18:41:32;101660.31;;;5.66;64.00